createdAt,value
2019-03-08T00:00:36.732Z,4.23
2019-03-08T00:03:03.607Z,10.23
2019-03-08T00:05:29.999Z,6.70
2019-03-08T00:07:56.620Z,7.77
2019-03-08T00:10:23.116Z,9.67
2019-03-08T00:12:49.659Z,9.23
2019-03-08T00:15:16.357Z,8.50
2019-03-08T00:17:42.871Z,7.60
2019-03-08T00:20:09.796Z,10.30
2019-03-08T00:22:36.379Z,9.07
2019-03-08T00:25:09.836Z,6.90
2019-03-08T00:27:36.320Z,8.63
2019-03-08T00:30:06.999Z,7.20
2019-03-08T00:32:33.483Z,9.00
2019-03-08T00:35:00.328Z,8.47
2019-03-08T00:37:26.832Z,10.93
2019-03-08T00:39:53.444Z,8.20
2019-03-08T00:42:19.944Z,9.67
2019-03-08T00:44:46.488Z,7.47
2019-03-08T00:47:12.994Z,9.33
2019-03-08T00:49:39.560Z,12.47
2019-03-08T00:52:06.243Z,9.07
2019-03-08T00:54:32.671Z,7.97
2019-03-08T00:56:59.159Z,7.97
2019-03-08T00:59:25.788Z,10.87
2019-03-08T01:01:52.176Z,6.23
2019-03-08T01:04:18.719Z,13.53
2019-03-08T01:06:45.205Z,6.10
2019-03-08T01:09:11.835Z,9.83
2019-03-08T01:11:38.373Z,10.40
2019-03-08T01:14:05.071Z,6.67
2019-03-08T01:16:31.724Z,12.57
2019-03-08T01:18:58.103Z,8.07
2019-03-08T01:21:24.883Z,10.73
2019-03-08T01:23:51.480Z,7.67
2019-03-08T01:26:18.024Z,7.17
2019-03-08T01:28:44.807Z,11.60
2019-03-08T01:31:11.444Z,9.73
2019-03-08T01:33:38.061Z,12.73
2019-03-08T01:36:04.687Z,6.77
2019-03-08T01:38:30.970Z,12.20
2019-03-08T01:40:57.502Z,11.13
2019-03-08T01:43:23.938Z,10.73
2019-03-08T01:45:50.816Z,7.50
2019-03-08T01:48:17.455Z,9.37
2019-03-08T01:50:44.142Z,9.23
2019-03-08T01:53:10.516Z,10.90
2019-03-08T01:55:37.036Z,12.37
2019-03-08T01:58:03.667Z,7.63
2019-03-08T02:00:30.269Z,8.17
2019-03-08T02:02:57.156Z,9.20
2019-03-08T02:05:23.748Z,10.43
2019-03-08T02:07:50.555Z,11.63
2019-03-08T02:10:17.369Z,6.77
2019-03-08T02:12:43.947Z,10.93
2019-03-08T02:15:16.160Z,10.13
2019-03-08T02:17:42.931Z,8.53
2019-03-08T02:20:16.949Z,7.10
2019-03-08T02:22:43.606Z,9.27
2019-03-08T02:25:10.171Z,10.03
2019-03-08T02:27:36.783Z,8.53
2019-03-08T02:30:07.983Z,10.23
2019-03-08T02:32:34.395Z,10.83
2019-03-08T02:35:00.999Z,7.37
2019-03-08T02:37:27.377Z,7.90
2019-03-08T02:39:53.889Z,10.20
2019-03-08T02:42:20.311Z,9.40
2019-03-08T02:44:46.871Z,11.60
2019-03-08T02:47:13.271Z,11.47
2019-03-08T02:49:39.910Z,16.63
2019-03-08T02:52:06.617Z,9.10
2019-03-08T02:54:34.455Z,9.27
2019-03-08T02:57:00.956Z,9.57
2019-03-08T02:59:27.374Z,5.73
2019-03-08T03:01:53.900Z,2.83
2019-03-08T03:04:20.331Z,8.83
2019-03-08T03:06:46.735Z,6.93
2019-03-08T03:09:13.247Z,4.37
2019-03-08T03:11:39.827Z,4.43
2019-03-08T03:14:06.457Z,7.87
2019-03-08T03:16:32.828Z,7.10
2019-03-08T03:18:59.259Z,6.13
2019-03-08T03:21:25.659Z,5.53
2019-03-08T03:23:52.031Z,4.57
2019-03-08T03:26:18.959Z,6.97
2019-03-08T03:28:45.559Z,5.67
2019-03-08T03:31:11.964Z,3.13
2019-03-08T03:33:38.390Z,4.77
2019-03-08T03:36:04.912Z,4.70
2019-03-08T03:38:31.394Z,3.63
2019-03-08T03:40:57.906Z,5.47
2019-03-08T03:43:24.384Z,7.60
2019-03-08T03:45:50.917Z,7.43
2019-03-08T03:48:17.210Z,5.23
2019-03-08T03:50:43.702Z,5.77
2019-03-08T03:53:10.203Z,5.57
2019-03-08T03:55:36.600Z,9.03
2019-03-08T03:58:03.031Z,5.30
2019-03-08T04:00:29.635Z,7.23
2019-03-08T04:02:56.250Z,6.00
2019-03-08T04:05:22.748Z,4.90
2019-03-08T04:07:49.416Z,6.23
2019-03-08T04:10:17.528Z,6.57
2019-03-08T04:12:44.090Z,5.93
2019-03-08T04:15:15.827Z,6.47
2019-03-08T04:17:42.776Z,4.93
2019-03-08T04:20:18.026Z,7.97
2019-03-08T04:22:44.786Z,9.93
2019-03-08T04:25:12.697Z,10.07
2019-03-08T04:27:39.406Z,7.10
2019-03-08T04:30:12.909Z,7.27
2019-03-08T04:32:39.608Z,12.80
2019-03-08T04:35:06.203Z,12.87
2019-03-08T04:37:32.728Z,8.57
2019-03-08T04:39:59.130Z,10.90
2019-03-08T04:42:25.475Z,9.27
2019-03-08T04:44:51.855Z,11.60
2019-03-08T04:47:18.196Z,14.63
2019-03-08T04:49:45.085Z,10.67
2019-03-08T04:52:11.509Z,13.97
2019-03-08T04:54:37.913Z,12.33
2019-03-08T04:57:04.197Z,11.40
2019-03-08T04:59:30.877Z,16.70
2019-03-08T05:01:57.289Z,10.50
2019-03-08T05:04:23.722Z,14.57
2019-03-08T05:06:50.090Z,14.87
2019-03-08T05:09:16.664Z,11.37
2019-03-08T05:11:43.060Z,17.40
2019-03-08T05:14:09.744Z,12.73
2019-03-08T05:16:36.239Z,13.03
2019-03-08T05:19:02.744Z,15.03
2019-03-08T05:21:30.709Z,12.20
2019-03-08T05:23:57.461Z,12.20
2019-03-08T05:26:24.135Z,16.70
2019-03-08T05:28:50.540Z,12.67
2019-03-08T05:31:17.081Z,17.50
2019-03-08T05:33:43.399Z,12.73
2019-03-08T05:36:09.739Z,13.23
2019-03-08T05:38:36.116Z,15.20
2019-03-08T05:41:02.762Z,11.00
2019-03-08T05:43:29.325Z,16.07
2019-03-08T05:45:55.766Z,17.53
2019-03-08T05:48:22.181Z,15.43
2019-03-08T05:50:48.507Z,13.00
2019-03-08T05:53:15.084Z,17.67
2019-03-08T05:55:41.624Z,12.87
2019-03-08T05:58:08.139Z,17.80
2019-03-08T06:00:35.296Z,13.87
2019-03-08T06:03:02.614Z,16.80
2019-03-08T06:05:29.115Z,17.07
2019-03-08T06:07:55.614Z,19.63
2019-03-08T06:10:28.050Z,21.30
2019-03-08T06:12:55.540Z,24.27
2019-03-08T06:15:21.943Z,20.37
2019-03-08T06:17:48.496Z,15.33
2019-03-08T06:20:15.296Z,16.53
2019-03-08T06:22:41.868Z,15.20
2019-03-08T06:25:08.358Z,15.97
2019-03-08T06:27:34.998Z,16.70
2019-03-08T06:30:01.642Z,20.80
2019-03-08T06:32:28.247Z,18.30
2019-03-08T06:34:54.804Z,13.90
2019-03-08T06:37:21.246Z,23.80
2019-03-08T06:39:47.572Z,18.30
2019-03-08T06:42:13.850Z,25.63
2019-03-08T06:44:40.340Z,19.27
2019-03-08T06:47:06.831Z,18.80
2019-03-08T06:49:33.198Z,20.60
2019-03-08T06:52:00.933Z,22.63
2019-03-08T06:54:27.517Z,20.77
2019-03-08T06:56:54.009Z,20.40
2019-03-08T06:59:28.532Z,18.27
2019-03-08T07:01:55.022Z,21.70
2019-03-08T07:04:21.431Z,23.67
2019-03-08T07:06:47.935Z,22.37
2019-03-08T07:09:14.342Z,20.63
2019-03-08T07:11:40.816Z,30.67
2019-03-08T07:14:07.521Z,17.17
2019-03-08T07:16:34.018Z,24.30
2019-03-08T07:19:00.495Z,24.37
2019-03-08T07:21:28.982Z,27.13
2019-03-08T07:24:00.151Z,27.00
2019-03-08T07:26:31.191Z,27.93
2019-03-08T07:29:05.784Z,26.17
2019-03-08T07:31:39.909Z,22.47
2019-03-08T07:34:08.331Z,26.57
2019-03-08T07:36:39.662Z,35.83
2019-03-08T07:39:29.894Z,28.30
2019-03-08T07:41:58.315Z,28.93
2019-03-08T07:44:32.784Z,32.17
2019-03-08T07:47:01.200Z,34.00
2019-03-08T07:49:41.504Z,38.73
2019-03-08T07:52:15.830Z,31.40
2019-03-08T07:54:56.434Z,29.63
2019-03-08T07:57:41.405Z,35.33
2019-03-08T08:00:14.286Z,29.47
2019-03-08T08:03:03.611Z,36.10
2019-03-08T08:05:31.080Z,28.67
2019-03-08T08:08:02.130Z,28.73
2019-03-08T08:10:33.254Z,36.10
2019-03-08T08:13:10.211Z,36.63
2019-03-08T08:15:45.512Z,29.13
2019-03-08T08:18:30.500Z,33.77
2019-03-08T08:21:10.876Z,26.50
2019-03-08T08:23:39.321Z,29.40
2019-03-08T08:26:10.819Z,22.10
2019-03-08T08:28:56.105Z,28.40
2019-03-08T08:31:27.613Z,26.97
2019-03-08T08:33:58.638Z,24.63
2019-03-08T08:36:33.034Z,27.80
2019-03-08T08:39:17.884Z,30.90
2019-03-08T08:41:49.364Z,27.20
2019-03-08T08:44:29.985Z,23.33
2019-03-08T08:46:58.416Z,28.30
2019-03-08T08:49:38.793Z,24.20
2019-03-08T08:52:07.201Z,23.47
2019-03-08T08:54:47.774Z,20.57
2019-03-08T08:57:16.200Z,27.27
2019-03-08T08:59:44.575Z,22.33
2019-03-08T09:02:18.940Z,26.23
2019-03-08T09:04:50.282Z,28.23
2019-03-08T09:07:21.830Z,26.43
2019-03-08T09:09:53.153Z,34.20
2019-03-08T09:12:38.100Z,34.50
2019-03-08T09:15:11.327Z,29.70
2019-03-08T09:17:57.731Z,33.63
2019-03-08T09:20:42.995Z,27.60
2019-03-08T09:23:11.522Z,29.00
2019-03-08T09:25:40.025Z,31.67
2019-03-08T09:28:08.626Z,19.70
2019-03-08T09:30:39.914Z,25.83
2019-03-08T09:33:11.320Z,28.43
2019-03-08T09:35:45.652Z,24.50
2019-03-08T09:38:14.109Z,25.50
2019-03-08T09:40:59.051Z,25.10
2019-03-08T09:43:36.667Z,29.33
2019-03-08T09:46:11.471Z,25.33
2019-03-08T09:48:48.804Z,29.13
2019-03-08T09:51:21.961Z,28.63
2019-03-08T09:53:52.988Z,24.53
2019-03-08T09:56:27.511Z,29.90
2019-03-08T09:59:11.321Z,25.03
2019-03-08T10:01:39.865Z,30.87
2019-03-08T10:04:11.024Z,26.23
2019-03-08T10:06:54.861Z,24.73
2019-03-08T10:09:25.950Z,26.47
2019-03-08T10:12:00.531Z,16.00
2019-03-08T10:14:29.069Z,22.23
2019-03-08T10:16:57.841Z,19.57
2019-03-08T10:19:29.375Z,18.07
2019-03-08T10:22:00.439Z,23.63
2019-03-08T10:24:28.836Z,21.67
2019-03-08T10:27:14.493Z,21.87
2019-03-08T10:29:48.490Z,18.30
2019-03-08T10:32:19.564Z,16.53
2019-03-08T10:34:57.310Z,19.00
2019-03-08T10:37:31.730Z,21.07
2019-03-08T10:40:06.340Z,20.07
2019-03-08T10:42:51.434Z,17.43
2019-03-08T10:45:36.539Z,12.17
2019-03-08T10:48:05.171Z,11.00
2019-03-08T10:50:42.379Z,10.63
2019-03-08T10:53:19.716Z,19.73
2019-03-08T10:56:05.178Z,13.47
2019-03-08T10:58:42.336Z,16.70
2019-03-08T11:01:28.488Z,11.53
2019-03-08T11:04:05.986Z,12.33
2019-03-08T11:06:37.750Z,13.80
2019-03-08T11:09:11.670Z,19.67
2019-03-08T11:11:42.765Z,22.10
2019-03-08T11:14:17.110Z,20.80
2019-03-08T11:16:54.452Z,18.53
2019-03-08T11:19:29.020Z,20.13
2019-03-08T11:22:12.346Z,20.60
2019-03-08T11:24:40.827Z,21.50
2019-03-08T11:27:15.106Z,17.37
2019-03-08T11:30:00.458Z,17.93
2019-03-08T11:32:34.570Z,21.13
2019-03-08T11:35:05.866Z,19.50
2019-03-08T11:37:34.390Z,18.33
2019-03-08T11:40:02.948Z,16.17
2019-03-08T11:42:49.585Z,17.87
2019-03-08T11:45:29.973Z,21.20
2019-03-08T11:48:10.639Z,17.30
2019-03-08T11:50:56.196Z,21.57
2019-03-08T11:53:24.705Z,15.57
2019-03-08T11:56:08.067Z,21.67
2019-03-08T11:58:48.786Z,19.23
2019-03-08T12:01:22.855Z,20.17
2019-03-08T12:03:57.209Z,20.57
2019-03-08T12:06:25.798Z,16.13
2019-03-08T12:08:56.925Z,20.70
2019-03-08T12:11:28.339Z,26.90
2019-03-08T12:14:13.195Z,16.23
2019-03-08T12:16:41.775Z,22.27
2019-03-08T12:19:27.325Z,22.83
2019-03-08T12:21:58.680Z,16.07
2019-03-08T12:24:39.018Z,15.93
2019-03-08T12:27:10.910Z,21.50
2019-03-08T12:29:55.992Z,18.60
2019-03-08T12:32:27.291Z,20.07
2019-03-08T12:35:00.713Z,23.50
2019-03-08T12:37:34.762Z,21.57
2019-03-08T12:40:03.306Z,19.13
2019-03-08T12:42:40.777Z,14.70
2019-03-08T12:45:28.224Z,12.87
2019-03-08T12:48:13.209Z,13.97
2019-03-08T12:50:44.585Z,12.40
2019-03-08T12:53:13.182Z,13.23
2019-03-08T12:55:44.696Z,20.27
2019-03-08T12:58:19.224Z,12.33
2019-03-08T13:00:47.711Z,16.17
2019-03-08T13:03:18.937Z,13.77
2019-03-08T13:06:02.582Z,18.57
2019-03-08T13:08:42.765Z,18.03
2019-03-08T13:11:09.276Z,15.03
2019-03-08T13:13:35.710Z,12.57
2019-03-08T13:16:02.550Z,17.57
2019-03-08T13:18:29.235Z,13.60
2019-03-08T13:20:55.892Z,16.63
2019-03-08T13:23:22.555Z,13.53
2019-03-08T13:25:49.257Z,15.10
2019-03-08T13:28:15.771Z,16.47
2019-03-08T13:30:42.488Z,13.43
2019-03-08T13:33:08.957Z,12.33
2019-03-08T13:35:35.851Z,13.00
2019-03-08T13:38:02.605Z,10.30
2019-03-08T13:40:29.242Z,15.10
2019-03-08T13:42:55.855Z,14.40
2019-03-08T13:45:22.507Z,10.57
2019-03-08T13:47:49.149Z,6.90
2019-03-08T13:50:15.809Z,6.47
2019-03-08T13:52:42.722Z,7.87
2019-03-08T13:55:13.601Z,9.10
2019-03-08T13:57:40.148Z,8.50
2019-03-08T14:00:14.975Z,5.70
2019-03-08T14:02:41.543Z,8.70
2019-03-08T14:05:08.263Z,10.30
2019-03-08T14:07:35.129Z,9.13
2019-03-08T14:10:03.374Z,13.87
2019-03-08T14:12:29.932Z,8.87
2019-03-08T14:14:56.470Z,8.37
2019-03-08T14:17:23.222Z,11.63
2019-03-08T14:19:50.081Z,7.73
2019-03-08T14:22:16.840Z,8.53
2019-03-08T14:24:43.392Z,13.67
2019-03-08T14:27:10.295Z,11.80
2019-03-08T14:29:36.875Z,10.37
2019-03-08T14:32:04.074Z,13.20
2019-03-08T14:34:30.603Z,13.97
2019-03-08T14:36:57.171Z,13.87
2019-03-08T14:39:23.848Z,9.57
2019-03-08T14:41:58.812Z,7.13
2019-03-08T14:44:39.462Z,10.17
2019-03-08T14:47:08.058Z,10.60
2019-03-08T14:49:34.416Z,12.37
2019-03-08T14:52:00.978Z,8.23
2019-03-08T14:54:27.486Z,9.57
2019-03-08T14:56:53.986Z,7.90
2019-03-08T14:59:20.506Z,7.50
2019-03-08T15:01:47.019Z,9.43
2019-03-08T15:04:13.816Z,8.20
2019-03-08T15:06:40.466Z,10.17
2019-03-08T15:09:11.113Z,10.27
2019-03-08T15:11:37.708Z,10.80
2019-03-08T15:14:04.449Z,10.43
2019-03-08T15:16:31.044Z,10.00
2019-03-08T15:18:57.627Z,9.10
2019-03-08T15:21:24.190Z,10.73
2019-03-08T15:23:54.127Z,12.43
2019-03-08T15:26:19.481Z,11.40
2019-03-08T15:28:46.021Z,7.10
2019-03-08T15:31:12.503Z,8.13
2019-03-08T15:33:39.090Z,6.77
2019-03-08T15:36:05.622Z,7.67
2019-03-08T15:38:32.282Z,9.97
2019-03-08T15:40:59.276Z,11.50
2019-03-08T15:43:25.866Z,8.70
2019-03-08T15:45:52.557Z,10.53
2019-03-08T15:48:19.005Z,10.87
2019-03-08T15:50:46.749Z,11.23
2019-03-08T15:53:13.983Z,8.73
2019-03-08T15:55:41.143Z,13.37
2019-03-08T15:58:07.737Z,8.57
2019-03-08T16:00:34.587Z,12.57
2019-03-08T16:03:01.424Z,9.97
2019-03-08T16:05:30.020Z,10.30
2019-03-08T16:07:57.656Z,10.47
2019-03-08T16:10:25.551Z,6.90
2019-03-08T16:12:52.146Z,13.13
2019-03-08T16:15:19.218Z,12.37
2019-03-08T16:17:45.909Z,7.90
2019-03-08T16:20:20.226Z,10.27
2019-03-08T16:22:46.970Z,7.77
2019-03-08T16:25:15.126Z,9.83
2019-03-08T16:27:41.906Z,11.13
2019-03-08T16:30:30.244Z,8.03
2019-03-08T16:33:20.978Z,10.70
2019-03-08T16:35:54.171Z,10.53
2019-03-08T16:38:31.156Z,9.13
2019-03-08T16:41:16.452Z,8.03
2019-03-08T16:43:47.526Z,10.47
2019-03-08T16:46:16.061Z,8.63
2019-03-08T16:48:52.290Z,7.87
2019-03-08T16:51:36.072Z,6.80
2019-03-08T16:54:07.616Z,5.77
2019-03-08T16:56:52.628Z,7.87
2019-03-08T16:59:21.148Z,6.50
2019-03-08T17:02:06.379Z,8.93
2019-03-08T17:04:49.837Z,4.63
2019-03-08T17:07:30.373Z,6.93
2019-03-08T17:10:01.535Z,7.17
2019-03-08T17:12:35.743Z,7.20
2019-03-08T17:15:06.979Z,9.97
2019-03-08T17:17:41.566Z,8.77
2019-03-08T17:20:12.896Z,10.93
2019-03-08T17:22:41.508Z,7.07
2019-03-08T17:25:23.712Z,7.30
2019-03-08T17:27:58.007Z,11.40
2019-03-08T17:30:32.390Z,9.20
2019-03-08T17:33:03.999Z,6.33
2019-03-08T17:35:50.391Z,8.67
2019-03-08T17:38:21.848Z,6.30
2019-03-08T17:40:50.411Z,9.77
2019-03-08T17:43:19.255Z,5.63
2019-03-08T17:45:59.648Z,8.07
2019-03-08T17:48:28.291Z,8.93
2019-03-08T17:51:15.039Z,7.37
2019-03-08T17:53:49.545Z,9.93
2019-03-08T17:56:36.212Z,6.83
2019-03-08T17:59:20.055Z,7.13
2019-03-08T18:01:54.247Z,5.00
2019-03-08T18:04:22.877Z,5.60
2019-03-08T18:06:53.455Z,8.20
2019-03-08T18:09:24.919Z,9.47
2019-03-08T18:11:56.241Z,7.40
2019-03-08T18:14:36.735Z,9.57
2019-03-08T18:17:05.342Z,6.37
2019-03-08T18:19:50.696Z,4.70
2019-03-08T18:22:22.095Z,6.73
2019-03-08T18:24:50.994Z,7.40
2019-03-08T18:27:22.758Z,6.67
2019-03-08T18:29:51.431Z,4.57
2019-03-08T18:32:38.629Z,4.70
2019-03-08T18:35:08.251Z,8.37
2019-03-08T18:37:45.996Z,7.13
2019-03-08T18:40:31.111Z,9.63
2019-03-08T18:43:05.382Z,4.47
2019-03-08T18:45:37.123Z,10.50
2019-03-08T18:48:08.491Z,9.87
2019-03-08T18:50:37.271Z,8.13
2019-03-08T18:53:08.683Z,7.00
2019-03-08T18:55:46.264Z,9.37
2019-03-08T18:58:31.539Z,8.60
2019-03-08T19:01:09.085Z,4.43
2019-03-08T19:03:54.235Z,7.23
2019-03-08T19:06:22.892Z,6.13
2019-03-08T19:08:51.550Z,5.57
2019-03-08T19:11:36.653Z,5.17
2019-03-08T19:14:14.383Z,6.30
2019-03-08T19:16:58.136Z,5.17
2019-03-08T19:19:27.110Z,7.80
2019-03-08T19:21:58.254Z,7.30
2019-03-08T19:24:26.950Z,8.17
2019-03-08T19:27:01.181Z,6.53
2019-03-08T19:29:35.945Z,6.03
2019-03-08T19:32:13.437Z,8.30
2019-03-08T19:34:54.007Z,8.33
2019-03-08T19:37:22.845Z,7.47
2019-03-08T19:39:51.737Z,6.83
2019-03-08T19:42:30.773Z,7.50
2019-03-08T19:45:05.030Z,6.43
2019-03-08T19:47:33.758Z,9.63
2019-03-08T19:50:08.818Z,9.23
2019-03-08T19:52:37.497Z,10.00
2019-03-08T19:55:07.580Z,7.77
2019-03-08T19:57:36.147Z,7.90
2019-03-08T20:00:22.529Z,7.63
2019-03-08T20:02:51.242Z,11.47
2019-03-08T20:05:29.472Z,9.50
2019-03-08T20:07:58.159Z,9.27
2019-03-08T20:10:33.151Z,9.30
2019-03-08T20:13:01.870Z,11.23
2019-03-08T20:15:36.788Z,5.50
2019-03-08T20:18:06.339Z,8.27
2019-03-08T20:20:34.933Z,9.87
2019-03-08T20:23:20.567Z,10.30
2019-03-08T20:25:52.145Z,15.03
2019-03-08T20:28:23.844Z,8.87
2019-03-08T20:31:07.177Z,9.93
2019-03-08T20:33:38.842Z,10.90
2019-03-08T20:36:07.595Z,10.60
2019-03-08T20:38:42.834Z,13.43
2019-03-08T20:41:20.604Z,11.37
2019-03-08T20:44:01.351Z,15.37
2019-03-08T20:46:30.187Z,11.27
2019-03-08T20:48:57.113Z,12.10
2019-03-08T20:51:24.390Z,10.93
2019-03-08T20:53:51.183Z,10.43
2019-03-08T20:56:18.046Z,16.60
2019-03-08T20:58:44.997Z,11.67
2019-03-08T21:01:11.848Z,16.10
2019-03-08T21:03:38.853Z,9.03
2019-03-08T21:06:05.704Z,11.07
2019-03-08T21:08:32.566Z,9.43
2019-03-08T21:10:59.461Z,9.13
2019-03-08T21:13:26.464Z,9.23
2019-03-08T21:15:53.280Z,10.60
2019-03-08T21:18:20.203Z,11.87
2019-03-08T21:20:47.015Z,10.83
2019-03-08T21:23:13.803Z,14.40
2019-03-08T21:25:40.908Z,11.03
2019-03-08T21:28:07.708Z,11.77
2019-03-08T21:30:34.773Z,8.37
2019-03-08T21:33:01.572Z,12.37
2019-03-08T21:35:28.487Z,15.97
2019-03-08T21:37:55.376Z,7.80
2019-03-08T21:40:22.247Z,13.20
2019-03-08T21:42:49.010Z,13.27
2019-03-08T21:45:16.274Z,9.70
2019-03-08T21:47:43.235Z,15.10
2019-03-08T21:50:17.151Z,12.63
2019-03-08T21:52:44.111Z,15.10
2019-03-08T21:55:11.067Z,10.93
2019-03-08T21:57:39.342Z,10.57
2019-03-08T22:00:24.199Z,12.23
2019-03-08T22:02:50.872Z,9.87
2019-03-08T22:05:22.022Z,10.23
2019-03-08T22:07:48.863Z,11.47
2019-03-08T22:10:20.134Z,10.87
2019-03-08T22:12:47.021Z,10.87
2019-03-08T22:15:14.067Z,9.33
2019-03-08T22:17:40.605Z,8.93
2019-03-08T22:20:07.283Z,10.63
2019-03-08T22:22:34.062Z,14.27
2019-03-08T22:25:00.919Z,8.37
2019-03-08T22:27:27.651Z,10.43
2019-03-08T22:29:54.462Z,11.90
2019-03-08T22:32:21.039Z,10.53
2019-03-08T22:34:47.741Z,8.43
2019-03-08T22:37:14.467Z,10.87
2019-03-08T22:39:41.273Z,8.23
2019-03-08T22:42:07.932Z,9.90
2019-03-08T22:44:34.268Z,11.03
2019-03-08T22:47:00.936Z,10.77
2019-03-08T22:49:27.460Z,14.73
2019-03-08T22:51:54.112Z,15.37
2019-03-08T22:54:20.876Z,14.83
2019-03-08T22:56:49.722Z,11.00
2019-03-08T22:59:16.512Z,11.37
2019-03-08T23:01:50.544Z,11.90
2019-03-08T23:04:17.199Z,14.87
2019-03-08T23:06:43.990Z,10.40
2019-03-08T23:09:11.565Z,10.87
2019-03-08T23:11:38.298Z,12.77
2019-03-08T23:14:04.994Z,12.03
2019-03-08T23:16:31.758Z,8.97
2019-03-08T23:18:58.162Z,11.10
2019-03-08T23:21:24.676Z,11.27
2019-03-08T23:23:51.251Z,9.77
2019-03-08T23:26:17.776Z,9.33
2019-03-08T23:28:46.203Z,12.77
2019-03-08T23:31:17.567Z,13.13
2019-03-08T23:33:44.106Z,9.43
2019-03-08T23:36:10.622Z,10.87
2019-03-08T23:38:37.303Z,10.77
2019-03-08T23:41:04.056Z,10.00
2019-03-08T23:43:30.585Z,7.90
2019-03-08T23:45:57.202Z,13.27
2019-03-08T23:48:23.870Z,13.13
2019-03-08T23:50:50.439Z,10.90
2019-03-08T23:53:16.931Z,8.27
2019-03-08T23:55:43.399Z,12.53
2019-03-08T23:58:10.033Z,13.13
